Tawakoni's Hourly Summary for Wednesday, March 15, 2017
Hour Temp
(f)
RH
(%)
Solar Rad.
(MJ/m2)
Rainfall
(in)
Wind
(mph)
3/15/2017 12:00 AM 49 59 0 0 1.79
3/15/2017 1:00 AM 49 57 0 0 3.01
3/15/2017 2:00 AM 47 57 0 0 5.2
3/15/2017 3:00 AM 46 65 0 0 4.72
3/15/2017 4:00 AM 46 65 0 0 5.1
3/15/2017 5:00 AM 47 67 0 0 5.54
3/15/2017 6:00 AM 46 69 0 0 6.71
3/15/2017 7:00 AM 45 69 0 0 6.3
3/15/2017 8:00 AM 44 70 0.02 0 6.4
3/15/2017 9:00 AM 44 70 0.2 0 6.29
3/15/2017 10:00 AM 45 67 0.65 0 7.21
3/15/2017 11:00 AM 45 66 1.02 0 7.8
3/15/2017 12:00 PM 47 59 1.89 0 8.03
3/15/2017 1:00 PM 50 55 2.75 0 7.6
3/15/2017 2:00 PM 53 47 2.84 0 6.11
3/15/2017 3:00 PM 56 45 2.72 0 6.79
3/15/2017 4:00 PM 58 44 2.54 0 7.26
3/15/2017 5:00 PM 60 40 1.54 0 6.58
3/15/2017 6:00 PM 61 40 0.83 0 5.83
3/15/2017 7:00 PM 60 43 0.53 0 5.04
3/15/2017 8:00 PM 57 46 0.06 0 3.19
3/15/2017 9:00 PM 52 57 0 0 2.62
3/15/2017 10:00 PM 51 64 0 0 4.23
3/15/2017 11:00 PM 50 65 0 0 5.22
Data Summary 50 57 17.59 0.00 5.61